Flight Track Log - Related Links

Times and Time Zones

All times are in EDT time to prevent confusion due to time zone crossing. See the UPS1307 flight status page for this flight to view local times or setup timezone preferences in your user account.

Time Position Orientation Groundspeed Altitude Reporting Facility
EDT Latitude Longitude Course Direction KTS MPH feet Rate Location/Type
Mon 10:39:46 PM 33.6470 -84.4090 90° East 163 188 1,700  Level FlightAware ADS-B
Mon 10:40:07 PM 33.6480 -84.3880 87° East 190 219 2,300 2,105 Climbing FlightAware ADS-B
Mon 10:40:43 PM 33.6500 -84.3470 87° East 219 252 3,700 2,357 Climbing FlightAware ADS-B
Mon 10:41:03 PM 33.6560 -84.3220 74° East 237 273 4,500 2,100 Climbing FlightAware ADS-B
Mon 10:41:23 PM 33.6620 -84.2950 75° East 262 302 5,100 2,591 Climbing FlightAware ADS-B
Mon 10:41:47 PM 33.6690 -84.2600 76° East 268 308 6,400 2,933 Climbing FlightAware ADS-B
Mon 10:42:08 PM 33.6750 -84.2300 76° East 278 320 7,300 2,684 Climbing FlightAware ADS-B
Mon 10:42:25 PM 33.6800 -84.2030 77° East 282 325 8,100 2,700 Climbing FlightAware ADS-B
Mon 10:42:48 PM 33.6880 -84.1690 74° East 286 329 9,100 2,550 Climbing FlightAware ADS-B
Mon 10:43:05 PM 33.6970 -84.1440 67° East 289 333 9,800 1,915 Climbing FlightAware ADS-B
Mon 10:43:35 PM 33.7120 -84.1000 68° East 309 356 10,600 1,412 Climbing FlightAware ADS-B
Mon 10:44:13 PM 33.7370 -84.0330 66° East 344 396 11,400 1,000 Climbing FlightAware ADS-B
Mon 10:44:59 PM 33.7770 -83.9670 54° Northeast 353 406 12,000 1,482 Climbing FlightAware ADS-B
Mon 10:45:38 PM 33.8220 -83.8920 54° Northeast 389 448 13,500 1,407 Climbing FlightAware ADS-B
Mon 10:46:20 PM 33.8620 -83.8280 53° Northeast 391 450 13,900 1,974 Climbing FlightAware ADS-B
Mon 10:46:54 PM 33.9030 -83.7590 54° Northeast 397 457 16,000 2,870 Climbing FlightAware ADS-B
Mon 10:47:29 PM 33.9430 -83.6930 54° Northeast 403 464 17,200 2,029 Climbing FlightAware ADS-B
Mon 10:48:02 PM 33.9790 -83.6370 52° Northeast 410 472 18,300 2,118 Climbing FlightAware ADS-B
Mon 10:48:37 PM 34.0220 -83.5700 52° Northeast 417 480 19,600 2,083 Climbing FlightAware ADS-B
Mon 10:49:14 PM 34.0640 -83.5040 52° Northeast 423 487 20,800 1,890 Climbing FlightAware ADS-B
Mon 10:49:50 PM 34.1090 -83.4320 53° Northeast 431 496 21,900 1,826 Climbing FlightAware ADS-B
Mon 10:50:23 PM 34.1490 -83.3680 53° Northeast 435 501 22,900 1,765 Climbing FlightAware ADS-B
Mon 10:50:58 PM 34.1920 -83.3000 53° Northeast 441 507 23,900 1,667 Climbing FlightAware ADS-B
Mon 10:51:35 PM 34.2370 -83.2270 53° Northeast 446 513 24,900 1,600 Climbing FlightAware ADS-B
Mon 10:51:43 PM 34.2485 -83.2096 51° Northeast 448 516 25,100 1,538 Climbing FlightAware ADS-B
Mon 10:52:14 PM 34.2870 -83.1481 53° Northeast 453 521 25,900 1,475 Climbing FlightAware ADS-B
Mon 10:52:44 PM 34.3258 -83.0858 53° Northeast 458 527 26,600 1,377 Climbing FlightAware ADS-B
Mon 10:53:15 PM 34.3654 -83.0221 53° Northeast 465 535 27,300 1,258 Climbing FlightAware ADS-B
Mon 10:53:46 PM 34.4050 -82.9583 53° Northeast 471 542 27,900 1,238 Climbing FlightAware ADS-B
Mon 10:54:18 PM 34.4472 -82.8901 53° Northeast 473 544 28,600 1,583 Climbing FlightAware ADS-B
Mon 10:54:58 PM 34.4994 -82.8056 53° Northeast 473 544 29,800 1,714 Climbing FlightAware ADS-B
Mon 10:55:35 PM 34.5480 -82.7267 53° Northeast 470 541 30,800 973 Climbing FlightAware ADS-B
Mon 10:56:12 PM 34.5950 -82.6510 53° Northeast 471 542 31,000 245 Climbing FlightAware ADS-B
Mon 10:56:24 PM 34.6112 -82.6249 53° Northeast 472 543 31,000  Level FlightAware ADS-B
Mon 10:57:21 PM 34.6894 -82.5055 51° Northeast 478 550 31,000  Level FlightAware ADS-B
Mon 10:57:54 PM 34.7355 -82.4347 52° Northeast 478 550 31,000  Level FlightAware ADS-B
Mon 10:58:25 PM 34.7771 -82.3705 52° Northeast 478 550 31,000  Level FlightAware ADS-B
Mon 10:58:55 PM 34.8182 -82.3067 52° Northeast 477 549 31,000  Level FlightAware ADS-B
Mon 10:59:27 PM 34.8617 -82.2389 52° Northeast 477 549 31,000  Level FlightAware ADS-B
Mon 10:59:57 PM 34.9027 -82.1750 52° Northeast 477 549 31,000  Level FlightAware ADS-B
Mon 11:00:27 PM 34.9434 -82.1115 52° Northeast 477 549 31,000  Level FlightAware ADS-B
Mon 11:00:57 PM 34.9846 -82.0473 52° Northeast 476 548 31,000  Level FlightAware ADS-B
Mon 11:01:28 PM 35.0254 -81.9834 52° Northeast 475 547 31,000  Level FlightAware ADS-B
Mon 11:01:58 PM 35.0661 -81.9195 52° Northeast 474 545 31,000  Level FlightAware ADS-B
Mon 11:02:28 PM 35.1073 -81.8548 52° Northeast 474 545 31,000  Level FlightAware ADS-B
Mon 11:02:59 PM 35.1482 -81.7904 52° Northeast 474 545 31,000  Level FlightAware ADS-B
Mon 11:03:29 PM 35.1887 -81.7264 52° Northeast 474 545 31,000  Level FlightAware ADS-B
Mon 11:04:00 PM 35.2304 -81.6606 52° Northeast 474 545 31,000  Level FlightAware ADS-B
Mon 11:04:30 PM 35.2711 -81.5960 52° Northeast 474 545 31,000  Level FlightAware ADS-B
Mon 11:05:01 PM 35.3116 -81.5318 52° Northeast 475 547 31,000  Level FlightAware ADS-B
Mon 11:05:33 PM 35.3552 -81.4626 52° Northeast 475 547 31,000  Level FlightAware ADS-B
Mon 11:06:05 PM 35.3982 -81.3943 52° Northeast 475 547 31,000  Level FlightAware ADS-B
Mon 11:06:35 PM 35.4394 -81.3289 52° Northeast 475 547 31,000  Level FlightAware ADS-B
Mon 11:07:13 PM 35.4900 -81.2490 52° Northeast 476 548 31,000  Level FlightAware ADS-B
Mon 11:07:49 PM 35.5370 -81.1730 53° Northeast 476 548 31,000  Level FlightAware ADS-B
Mon 11:08:21 PM 35.5820 -81.1020 52° Northeast 477 549 31,000  Level FlightAware ADS-B
Mon 11:09:05 PM 35.6400 -81.0080 53° Northeast 478 550 31,000  Level FlightAware ADS-B
Mon 11:09:35 PM 35.6820 -80.9420 52° Northeast 479 551 31,000  Level FlightAware ADS-B
Mon 11:10:15 PM 35.7340 -80.8580 53° Northeast 479 551 31,000  Level FlightAware ADS-B
Mon 11:10:45 PM 35.7750 -80.7920 53° Northeast 479 551 31,000  Level FlightAware ADS-B
Mon 11:11:31 PM 35.8290 -80.7080 52° Northeast 479 551 31,000  Level FlightAware ADS-B
Mon 11:12:08 PM 35.8720 -80.6400 52° Northeast 479 551 31,000  Level FlightAware ADS-B
Mon 11:12:36 PM 35.9250 -80.5510 54° Northeast 480 552 31,000  Level FlightAware ADS-B
Mon 11:13:24 PM 35.9820 -80.4590 53° Northeast 481 554 31,000  Level FlightAware ADS-B
Mon 11:14:00 PM 36.0240 -80.3930 52° Northeast 481 554 31,000  Level FlightAware ADS-B
Mon 11:14:36 PM 36.0660 -80.3260 52° Northeast 481 554 31,000  Level FlightAware ADS-B
Mon 11:15:01 PM 36.1100 -80.2480 55° Northeast 540 621 31,000  Level FlightAware ADS-B
Mon 11:18:23 PM 36.3890 -79.7810 53° Northeast 484 557 31,000  Level FlightAware ADS-B
Mon 11:19:05 PM 36.4400 -79.6980 53° Northeast 484 557 31,000  Level FlightAware ADS-B
Mon 11:19:39 PM 36.4920 -79.6080 54° Northeast 486 559 31,000  Level FlightAware ADS-B
Mon 11:20:17 PM 36.5370 -79.5340 53° Northeast 485 558 31,000  Level FlightAware ADS-B
Mon 11:20:49 PM 36.5860 -79.4520 53° Northeast 487 560 31,000  Level FlightAware ADS-B
Mon 11:21:25 PM 36.6340 -79.3700 54° Northeast 487 560 31,000  Level FlightAware ADS-B
Mon 11:22:01 PM 36.6810 -79.2920 53° Northeast 487 560 31,000  Level FlightAware ADS-B
Mon 11:22:37 PM 36.7300 -79.2080 54° Northeast 487 560 31,000  Level FlightAware ADS-B
Mon 11:23:09 PM 36.7730 -79.1350 54° Northeast 486 559 31,000  Level FlightAware ADS-B
Mon 11:23:47 PM 36.8230 -79.0510 53° Northeast 487 560 31,000  Level FlightAware ADS-B
Mon 11:24:19 PM 36.8690 -78.9780 52° Northeast 488 562 31,000  Level FlightAware ADS-B
Mon 11:24:53 PM 36.9170 -78.9060 50° Northeast 490 564 31,000  Level FlightAware ADS-B
Mon 11:25:31 PM 36.9760 -78.8220 49° Northeast 493 567 31,000  Level FlightAware ADS-B
Mon 11:26:07 PM 37.0310 -78.7430 49° Northeast 494 568 31,000  Level FlightAware ADS-B
Mon 11:26:38 PM 37.0770 -78.6770 49° Northeast 496 571 31,000  Level FlightAware ADS-B
Mon 11:27:14 PM 37.1310 -78.5980 49° Northeast 497 572 31,000  Level FlightAware ADS-B
Mon 11:27:50 PM 37.1850 -78.5210 49° Northeast 499 574 31,000  Level FlightAware ADS-B
Mon 11:28:24 PM 37.2360 -78.4470 49° Northeast 499 574 31,000  Level FlightAware ADS-B
Mon 11:29:00 PM 37.2900 -78.3680 49° Northeast 501 577 31,000  Level FlightAware ADS-B
Mon 11:29:36 PM 37.3460 -78.2870 49° Northeast 501 577 31,000  Level FlightAware ADS-B
Mon 11:30:12 PM 37.4000 -78.2080 49° Northeast 499 574 31,000  Level FlightAware ADS-B
Mon 11:30:44 PM 37.4500 -78.1350 49° Northeast 500 575 31,000  Level FlightAware ADS-B
Mon 11:31:20 PM 37.5040 -78.0580 49° Northeast 500 575 31,000  Level FlightAware ADS-B
Mon 11:31:56 PM 37.5590 -77.9780 49° Northeast 499 574 31,000  Level FlightAware ADS-B
Mon 11:32:30 PM 37.6080 -77.9050 50° Northeast 500 575 31,000  Level FlightAware ADS-B
Mon 11:33:06 PM 37.6650 -77.8220 49° Northeast 500 575 31,000  Level FlightAware ADS-B
Mon 11:33:42 PM 37.7190 -77.7420 50° Northeast 501 577 31,000  Level FlightAware ADS-B
Mon 11:34:16 PM 37.7700 -77.6660 50° Northeast 502 578 31,000  Level FlightAware ADS-B
Mon 11:34:52 PM 37.8250 -77.5850 49° Northeast 502 578 31,000  Level FlightAware ADS-B
Mon 11:35:27 PM 37.8770 -77.5090 49° Northeast 502 578 31,000  Level FlightAware ADS-B
Mon 11:36:02 PM 37.9300 -77.4300 50° Northeast 502 578 31,000  Level FlightAware ADS-B
Mon 11:36:40 PM 37.9880 -77.3440 49° Northeast 503 579 31,000  Level FlightAware ADS-B
Mon 11:37:10 PM 38.0340 -77.2750 50° Northeast 505 581 31,000  Level FlightAware ADS-B
Mon 11:37:48 PM 38.0900 -77.1920 49° Northeast 505 581 31,000  Level FlightAware ADS-B
Mon 11:38:24 PM 38.1450 -77.1090 50° Northeast 503 579 31,000  Level FlightAware ADS-B
Mon 11:39:00 PM 38.1990 -77.0270 50° Northeast 501 577 31,000  Level FlightAware ADS-B
Mon 11:39:30 PM 38.2430 -76.9610 50° Northeast 501 577 31,000  Level FlightAware ADS-B
Mon 11:40:08 PM 38.2990 -76.8750 50° Northeast 501 577 31,000  Level FlightAware ADS-B
Mon 11:40:44 PM 38.3540 -76.7920 50° Northeast 500 575 31,000 -167 Level FlightAware ADS-B
Mon 11:41:20 PM 38.4060 -76.7130 50° Northeast 499 574 30,800 -1,147 Descending FlightAware ADS-B
Mon 11:41:52 PM 38.4550 -76.6390 50° Northeast 493 567 29,700 -2,912 Descending FlightAware ADS-B
Mon 11:42:28 PM 38.5070 -76.5590 50° Northeast 492 566 27,500 -3,333 Descending FlightAware ADS-B
Mon 11:43:04 PM 38.5580 -76.4800 50° Northeast 482 555 25,700 -3,088 Descending FlightAware ADS-B
Mon 11:43:36 PM 38.6050 -76.4080 50° Northeast 476 548 24,000 -3,088 Descending FlightAware ADS-B
Mon 11:44:12 PM 38.6550 -76.3300 51° Northeast 470 541 22,200 -2,959 Descending FlightAware ADS-B
Mon 11:44:49 PM 38.7050 -76.2540 50° Northeast 464 534 20,400 -2,833 Descending FlightAware ADS-B
Mon 11:45:24 PM 38.7530 -76.1800 50° Northeast 454 522 18,800 -2,824 Descending FlightAware ADS-B
Mon 11:45:57 PM 38.7950 -76.1140 51° Northeast 443 510 17,200 -2,818 Descending FlightAware ADS-B
Mon 11:46:30 PM 38.8380 -76.0460 51° Northeast 435 501 15,700 -1,833 Descending FlightAware ADS-B
Mon 11:47:09 PM 38.8680 -75.9540 67° East 433 498 15,000 -676 Descending FlightAware ADS-B
Mon 11:47:41 PM 38.8880 -75.8720 73° East 431 496 14,900 -87 Descending FlightAware ADS-B
Mon 11:48:18 PM 38.9300 -75.8020 52° Northeast 411 473 14,900 -583 Level FlightAware ADS-B
Mon 11:48:53 PM 38.9820 -75.7520 37° Northeast 389 448 14,200 -2,028 Descending FlightAware ADS-B
Mon 11:49:29 PM 39.0370 -75.7020 35° Northeast 405 466 12,500 -2,696 Descending FlightAware ADS-B
Mon 11:50:02 PM 39.0930 -75.6760 20° North 397 457 11,100 -1,629 Descending FlightAware ADS-B
Mon 11:50:39 PM 39.1580 -75.6680 North 362 417 10,600 -822 Descending FlightAware ADS-B
Mon 11:51:15 PM 39.2150 -75.6620 North 334 384 10,100 -750 Descending FlightAware ADS-B
Mon 11:51:35 PM 39.2470 -75.6580 North 327 376 9,900 -300 Descending FlightAware ADS-B
Mon 11:51:55 PM 39.2760 -75.6520 North 330 380 9,900 214 Level FlightAware ADS-B
Mon 11:52:03 PM 39.2880 -75.6460 21° North 330 380 10,000 300 Climbing FlightAware ADS-B
Mon 11:52:15 PM 39.3040 -75.6320 34° Northeast 335 386 10,000  Level FlightAware ADS-B
Mon 11:52:43 PM 39.3350 -75.5950 43° Northeast 337 388 10,000  Level FlightAware ADS-B
Mon 11:52:59 PM 39.3550 -75.5720 42° Northeast 336 387 10,000  Level FlightAware ADS-B
Mon 11:53:19 PM 39.3780 -75.5450 42° Northeast 336 387 10,000 -150 Level FlightAware ADS-B
Mon 11:53:39 PM 39.4000 -75.5190 42° Northeast 335 386 9,900  Descending FlightAware ADS-B
Mon 11:54:03 PM 39.4270 -75.4870 42° Northeast 334 384 10,000 140 Climbing FlightAware ADS-B
Mon 11:54:22 PM 39.4490 -75.4600 43° Northeast 334 384 10,000  Level FlightAware ADS-B
Mon 11:54:44 PM 39.4740 -75.4310 42° Northeast 333 383 10,000  Level FlightAware ADS-B
Mon 11:55:02 PM 39.4970 -75.4040 42° Northeast 334 384 10,000 -150 Level FlightAware ADS-B
Mon 11:55:24 PM 39.5190 -75.3780 42° Northeast 318 366 9,900 -391 Descending FlightAware ADS-B
Mon 11:55:48 PM 39.5460 -75.3460 42° Northeast 302 348 9,700 -698 Descending FlightAware ADS-B
Mon 11:56:07 PM 39.5660 -75.3230 42° Northeast 295 339 9,400 -1,231 Descending FlightAware ADS-B
Mon 11:56:27 PM 39.5860 -75.2990 43° Northeast 295 339 8,900 -1,350 Descending FlightAware ADS-B
Mon 11:56:47 PM 39.6060 -75.2760 42° Northeast 296 341 8,500 -1,364 Descending FlightAware ADS-B
Mon 11:57:11 PM 39.6300 -75.2460 44° Northeast 295 339 7,900 -1,333 Descending FlightAware ADS-B
Mon 11:57:32 PM 39.6520 -75.2200 42° Northeast 291 335 7,500 -1,105 Descending FlightAware ADS-B
Mon 11:57:49 PM 39.6690 -75.2000 42° Northeast 286 329 7,200 -1,091 Descending FlightAware ADS-B
Mon 11:58:05 PM 39.6840 -75.1820 43° Northeast 283 326 6,900 -1,029 Descending FlightAware ADS-B
Mon 11:58:24 PM 39.7020 -75.1610 42° Northeast 278 320 6,600 -1,200 Descending FlightAware ADS-B
Mon 11:58:45 PM 39.7220 -75.1350 45° Northeast 277 319 6,100 -1,256 Descending FlightAware ADS-B
Mon 11:59:07 PM 39.7400 -75.1130 43° Northeast 277 319 5,700 -1,429 Descending FlightAware ADS-B
Mon 11:59:27 PM 39.7620 -75.0860 43° Northeast 279 321 5,100 -1,429 Descending FlightAware ADS-B
Mon 11:59:49 PM 39.7810 -75.0610 45° Northeast 279 321 4,700 -1,174 Descending FlightAware ADS-B
Tue 12:00:13 AM 39.8030 -75.0330 44° Northeast 278 320 4,200 -1,333 Descending FlightAware ADS-B
Tue 12:00:25 AM 39.8150 -75.0200 40° Northeast 272 313 3,900 -1,500 Descending FlightAware ADS-B
Tue 12:00:33 AM 39.8240 -75.0150 23° Northeast 265 305 3,700 -1,500 Descending FlightAware ADS-B
Tue 12:00:41 AM 39.8340 -75.0130 North 257 296 3,500 -1,500 Descending FlightAware ADS-B
Tue 12:00:45 AM 39.8390 -75.0130 360° North 252 290 3,400 -1,500 Descending FlightAware ADS-B
Tue 12:00:53 AM 39.8470 -75.0150 349° North 246 283 3,200 -1,412 Descending FlightAware ADS-B
Tue 12:01:02 AM 39.8560 -75.0220 329° Northwest 241 277 3,000 -1,200 Descending FlightAware ADS-B
Tue 12:01:13 AM 39.8660 -75.0300 328° Northwest 241 277 2,800 -1,455 Descending FlightAware ADS-B
Tue 12:01:35 AM 39.8880 -75.0470 329° Northwest 236 272 2,200 -1,043 Descending FlightAware ADS-B
Tue 12:01:59 AM 39.9080 -75.0650 325° Northwest 201 231 2,000 -167 Descending FlightAware ADS-B
Tue 12:02:11 AM 39.9120 -75.0780 292° West 166 191 2,100 300 Climbing FlightAware ADS-B
Tue 12:02:39 AM 39.9020 -75.0980 237° Southwest 134 154 2,200  Climbing FlightAware ADS-B
Tue 12:02:51 AM 39.8970 -75.1030 217° Southwest 124 143 2,100 -571 Descending FlightAware ADS-B
Tue 12:03:00 AM 39.8950 -75.1090 247° West 114 131 2,000 -261 Descending FlightAware ADS-B
Tue 12:03:14 AM 39.8920 -75.1180 247° West 99 114 2,000 -514 Level FlightAware ADS-B
Tue 12:03:35 AM 39.8890 -75.1300 252° West 93 107 1,700 -480 Descending FlightAware ADS-B
Tue 12:04:04 AM 39.8870 -75.1460 261° West 92 106 1,600 -490 Descending FlightAware ADS-B
Tue 12:04:24 AM 39.8840 -75.1560 249° West 93 107 1,300 -585 Descending FlightAware ADS-B
Tue 12:04:45 AM 39.8820 -75.1690 259° West 94 108 1,200 -522 Descending FlightAware ADS-B
Tue 12:05:10 AM 39.8790 -75.1820 253° West 97 112 900 -667 Descending FlightAware ADS-B
Tue 12:05:30 AM 39.8770 -75.1940 258° West 103 119 700 -414 Descending FlightAware ADS-B
Tue 12:05:39 AM 39.8760 -75.2000 258° West 105 121 700  Level FlightAware ADS-B
Tue 12:05:45 AM 39.8750 -75.2020 237° Southwest 103 119 700 -255 Level FlightAware ADS-B
Tue 12:06:26 AM 39.8710 -75.2270 258° West 107 123 500 -293 Descending FlightAware ADS-B

Login

Don't have an account? Register now (free) for customized features, flight alerts, and more!